Time;durP1;ratioP1;P1;durP2;ratioP2;P2;SDS_P1;SDS_P2;PMS_P1;PMS_P2;Temp;Humidity;BMP_temperature;BMP_pressure;BME280_temperature;BME280_humidity;BME280_pressure;Samples;Min_cycle;Max_cycle;Signal;HPM_P1;HPM_P2
2021/05/31 00:01:05;;;;;;;;;;;10.70;95.30;;;7.81;64.86;96223.44;10538537;28;2004;-84
2021/05/31 00:06:08;;;;;;;;;;;8.90;95.20;;;7.78;64.87;96223.13;10556426;28;1915;-87
2021/05/31 00:11:11;;;;;;;;;;;9.70;96.40;;;7.78;65.75;96223.94;10532374;28;2234;-86
2021/05/31 00:16:14;;;;;;;;;;;8.90;96.50;;;7.65;66.16;96224.25;10544371;28;1934;-87
2021/05/31 00:21:16;;;;;;;;;;;10.20;97.80;;;7.64;66.75;96227.19;10537896;28;2209;-86
2021/05/31 00:26:20;;;;;;;;;;;9.50;98.40;;;7.55;67.03;96214.19;10541678;28;2131;-87
2021/05/31 00:31:37;;;;;;;;;;;8.70;98.60;;;7.49;67.34;96220.50;10542733;28;2100;-86
2021/05/31 00:36:40;;;;;;;;;;;10.20;99.90;;;7.52;68.39;96219.25;10555605;28;1963;-86
2021/05/31 00:41:51;;;;;;;;;;;9.60;99.90;;;7.49;68.14;96222.38;10540266;28;1380;-87
2021/05/31 00:46:54;;;;;;;;;;;10.20;99.90;;;7.39;69.02;96215.03;10535685;28;1583;-87
2021/05/31 00:51:57;;;;;;;;;;;9.60;99.90;;;7.42;69.06;96219.06;10553901;28;2100;-87
2021/05/31 00:56:59;;;;;;;;;;;9.90;99.90;;;7.29;69.66;96212.16;10529357;28;2266;-87
2021/05/31 01:02:02;;;;;;;;;;;9.30;99.90;;;7.22;70.14;96203.50;10542829;28;2198;-85
2021/05/31 01:07:05;;;;;;;;;;;8.40;99.90;;;7.17;70.46;96208.75;10539907;28;2127;-85
2021/05/31 01:12:07;;;;;;;;;;;9.90;99.90;;;7.16;71.20;96217.81;10548439;28;1291;-86
2021/05/31 01:17:10;;;;;;;;;;;8.40;99.90;;;7.13;71.70;96202.28;10548967;28;2306;-87
2021/05/31 01:22:13;;;;;;;;;;;9.30;99.90;;;7.11;71.77;96199.81;10553651;28;2221;-88
2021/05/31 01:27:15;;;;;;;;;;;9.50;99.90;;;7.04;71.99;96191.16;10557404;28;2054;-85
2021/05/31 01:32:18;;;;;;;;;;;9.30;99.90;;;6.98;72.81;96197.44;10541893;28;2208;-84
2021/05/31 01:37:20;;;;;;;;;;;9.40;99.90;;;6.95;73.41;96193.41;10534861;28;2188;-85
2021/05/31 01:42:23;;;;;;;;;;;8.70;99.90;;;6.93;73.54;96189.34;10548627;28;1598;-86
2021/05/31 01:47:25;;;;;;;;;;;9.20;99.90;;;6.88;74.26;96192.75;10541969;28;2205;-86
2021/05/31 01:52:32;;;;;;;;;;;8.90;99.90;;;6.84;74.37;96191.59;10545409;28;2171;-85
2021/05/31 01:57:35;;;;;;;;;;;7.90;99.90;;;6.87;74.37;96177.78;10567071;28;2068;-87
2021/05/31 02:02:37;;;;;;;;;;;9.70;99.90;;;6.82;74.71;96175.00;10540089;28;2143;-85
2021/05/31 02:07:40;;;;;;;;;;;7.90;99.90;;;6.76;75.19;96178.63;10555745;28;2145;-88
2021/05/31 02:12:43;;;;;;;;;;;7.90;99.90;;;6.70;75.98;96180.41;10545151;28;2131;-87
2021/05/31 02:17:45;;;;;;;;;;;7.80;99.90;;;6.68;76.17;96176.31;10550357;28;2191;-87
2021/05/31 02:22:48;;;;;;;;;;;7.90;99.90;;;6.58;76.46;96166.28;10545656;28;2016;-85
2021/05/31 02:27:51;;;;;;;;;;;7.80;99.90;;;6.57;76.95;96175.34;10542510;28;1759;-86
2021/05/31 02:32:54;;;;;;;;;;;8.90;99.90;;;6.62;76.51;96161.28;10560927;28;1536;-88
2021/05/31 02:37:57;;;;;;;;;;;8.90;99.90;;;6.63;76.66;96157.56;10545109;28;1758;-88
2021/05/31 02:43:00;;;;;;;;;;;8.60;99.90;;;6.53;76.93;96160.81;10540001;28;1970;-88
2021/05/31 02:48:05;;;;;;;;;;;9.10;99.90;;;6.47;77.71;96153.75;10543067;22;3531;-87
2021/05/31 02:53:20;;;;;;;;;;;8.60;99.90;;;6.53;77.09;96146.66;10428119;28;1947;-86
2021/05/31 02:58:23;;;;;;;;;;;7.60;99.90;;;6.49;77.26;96149.81;10441590;28;1984;-87
2021/05/31 03:03:26;;;;;;;;;;;7.90;99.90;;;6.40;77.80;96150.44;10434909;28;1318;-87
2021/05/31 03:08:31;;;;;;;;;;;8.70;99.90;;;6.36;77.73;96138.59;10417023;28;1597;-88
2021/05/31 03:14:00;;;;;;;;;;;7.60;99.90;;;6.39;78.40;96140.81;10411894;28;1909;-88
2021/05/31 03:19:17;;;;;;;;;;;7.50;99.90;;;6.50;77.46;96143.44;10430132;28;1701;-88
2021/05/31 03:24:20;;;;;;;;;;;7.50;99.90;;;6.47;77.60;96130.53;10437487;28;1778;-86
2021/05/31 03:29:23;;;;;;;;;;;8.30;99.90;;;6.47;77.25;96143.91;10422382;28;2044;-87
2021/05/31 03:34:29;;;;;;;;;;;9.00;99.90;;;6.61;77.13;96147.09;10425731;28;1891;-87
2021/05/31 03:39:45;;;;;;;;;;;8.00;99.90;;;6.67;77.57;96137.31;10428757;28;1756;-87
2021/05/31 03:45:00;;;;;;;;;;;7.70;99.90;;;6.87;76.47;96132.34;10416770;28;1562;-87
2021/05/31 03:50:03;;;;;;;;;;;8.20;99.90;;;7.16;75.79;96132.25;10407439;28;1887;-85
2021/05/31 03:55:16;;;;;;;;;;;8.80;99.90;;;7.45;73.88;96133.00;10422860;28;2080;-87
2021/05/31 04:00:18;;;;;;;;;;;9.70;99.90;;;7.76;72.83;96128.88;10412314;28;1661;-86
2021/05/31 04:05:22;;;;;;;;;;;8.50;99.90;;;7.96;72.05;96129.16;10408248;28;2082;-87
2021/05/31 04:15:46;;;;;;;;;;;9.30;99.90;;;8.50;68.95;96123.13;10381927;28;2172;-87
2021/05/31 04:20:52;;;;;;;;;;;10.80;99.90;;;8.78;68.13;96122.06;10424846;28;2022;-84
2021/05/31 04:25:59;;;;;;;;;;;9.40;99.90;;;9.06;66.80;96115.63;10414666;28;2003;-85
2021/05/31 04:31:06;;;;;;;;;;;9.70;99.90;;;9.34;65.22;96123.34;10422573;28;1372;-87
2021/05/31 04:36:10;;;;;;;;;;;10.70;99.90;;;9.30;65.23;96127.63;10428590;28;2111;-85
2021/05/31 04:41:27;;;;;;;;;;;10.10;99.90;;;9.41;65.00;96129.31;10442265;28;1887;-85
2021/05/31 04:46:47;;;;;;;;;;;10.20;99.90;;;9.24;65.79;96117.13;10438935;28;2299;-86
2021/05/31 04:51:50;;;;;;;;;;;10.30;99.90;;;9.04;66.43;96121.25;10417701;28;1761;-86
2021/05/31 04:57:05;;;;;;;;;;;10.10;99.90;;;8.89;67.32;96126.47;10410703;28;2104;-86
2021/05/31 05:02:08;;;;;;;;;;;10.00;99.90;;;8.82;67.18;96128.53;10434368;28;2109;-87
2021/05/31 05:07:13;;;;;;;;;;;9.90;99.90;;;9.35;65.13;96135.72;10448712;28;1874;-85
2021/05/31 05:12:15;;;;;;;;;;;11.20;99.90;;;9.13;65.75;96133.13;10442582;28;1259;-84
2021/05/31 05:17:18;;;;;;;;;;;10.20;99.90;;;9.80;64.16;96130.91;10430726;28;2281;-86
2021/05/31 05:22:35;;;;;;;;;;;10.50;99.90;;;9.62;64.23;96132.97;10431646;28;1917;-87
2021/05/31 05:27:38;;;;;;;;;;;10.60;99.90;;;9.55;64.88;96124.31;10444209;28;2031;-86
2021/05/31 05:32:48;;;;;;;;;;;10.50;99.90;;;9.33;64.52;96131.66;10407944;28;1490;-84
2021/05/31 05:38:00;;;;;;;;;;;10.50;99.90;;;9.88;64.05;96133.13;10421116;28;1945;-85
2021/05/31 05:43:15;;;;;;;;;;;10.70;99.90;;;10.50;62.19;96126.97;10419771;28;2040;-84
2021/05/31 05:48:18;;;;;;;;;;;11.00;99.90;;;10.59;62.07;96128.06;10417452;28;2051;-85
2021/05/31 05:53:21;;;;;;;;;;;11.30;99.90;;;11.26;59.15;96126.28;10436623;28;2448;-86
2021/05/31 05:58:27;;;;;;;;;;;11.80;99.90;;;11.62;58.73;96132.47;10433262;28;1974;-86
2021/05/31 06:03:36;;;;;;;;;;;12.20;99.90;;;10.98;59.77;96138.38;10420953;28;1404;-83
2021/05/31 06:08:39;;;;;;;;;;;12.20;99.90;;;11.42;59.68;96130.59;10420184;28;1706;-87
2021/05/31 06:13:42;;;;;;;;;;;12.30;99.90;;;11.33;59.68;96130.34;10430358;28;1970;-84
2021/05/31 06:18:45;;;;;;;;;;;12.20;99.90;;;11.73;58.11;96133.25;10424048;28;1924;-86
2021/05/31 06:23:48;;;;;;;;;;;12.50;99.90;;;11.38;59.03;96138.38;10442788;28;1813;-84
2021/05/31 06:28:51;;;;;;;;;;;12.50;99.90;;;12.24;57.69;96128.56;10425812;28;2262;-84
2021/05/31 06:33:55;;;;;;;;;;;12.80;99.90;;;11.91;57.18;96132.72;10415091;28;2071;-84
2021/05/31 06:38:58;;;;;;;;;;;13.20;99.90;;;11.74;57.92;96124.91;10391947;28;2087;-85
2021/05/31 06:44:00;;;;;;;;;;;13.00;99.90;;;12.08;56.65;96127.81;10409491;28;2173;-83
2021/05/31 06:49:06;;;;;;;;;;;13.00;99.90;;;13.03;55.11;96117.91;10404003;28;2089;-88
2021/05/31 06:59:58;;;;;;;;;;;13.90;99.90;;;12.67;55.98;96123.53;10399318;28;2067;-82
2021/05/31 07:05:03;;;;;;;;;;;13.50;99.90;;;12.77;53.16;96120.75;10398729;28;2036;-80
2021/05/31 07:38:25;;;;;;;;;;;15.50;99.90;;;13.80;50.88;96124.31;10303710;28;2232;-82
2021/05/31 07:43:32;;;;;;;;;;;14.80;99.60;;;13.39;51.26;96122.00;10312931;28;2146;-81
2021/05/31 07:48:35;;;;;;;;;;;14.70;98.30;;;13.69;48.92;96128.22;10322568;28;2106;-80
2021/05/31 07:53:39;;;;;;;;;;;14.80;97.10;;;14.52;47.09;96118.97;10326819;28;2264;-86
2021/05/31 08:04:35;;;;;;;;;;;15.20;96.10;;;14.46;47.35;96123.63;10271895;28;2094;-88
2021/05/31 08:09:48;;;;;;;;;;;15.40;94.70;;;14.78;46.83;96130.25;10361601;28;2173;-87
2021/05/31 08:15:05;;;;;;;;;;;15.70;93.80;;;14.50;45.79;96124.66;10327781;28;2088;-83
2021/05/31 08:20:23;;;;;;;;;;;15.70;91.40;;;14.96;45.62;96118.66;10339177;28;2054;-85
2021/05/31 08:25:30;;;;;;;;;;;15.90;92.00;;;14.70;46.71;96123.59;10345237;28;2062;-85
2021/05/31 08:30:34;;;;;;;;;;;15.80;92.40;;;14.81;45.96;96118.84;10348268;28;2028;-85
2021/05/31 08:35:38;;;;;;;;;;;15.60;91.60;;;14.17;47.82;96112.84;10363149;28;1992;-84
2021/05/31 08:40:41;;;;;;;;;;;15.40;91.60;;;14.29;48.78;96121.34;10337841;28;1966;-85
2021/05/31 08:45:46;;;;;;;;;;;15.40;93.60;;;14.71;48.27;96125.22;10348895;28;1895;-85
2021/05/31 08:51:01;;;;;;;;;;;15.50;93.90;;;13.93;49.27;96112.03;10330061;28;1959;-85
2021/05/31 08:56:07;;;;;;;;;;;15.40;93.00;;;14.02;48.61;96113.81;10348114;28;2008;-84
2021/05/31 09:01:19;;;;;;;;;;;15.40;92.50;;;14.71;47.25;96111.69;10340462;28;1725;-84
2021/05/31 09:06:27;;;;;;;;;;;15.60;92.70;;;14.73;47.42;96114.09;10327485;28;2131;-84
2021/05/31 09:11:43;;;;;;;;;;;15.70;92.60;;;14.58;46.15;96110.50;10336880;28;1479;-84
2021/05/31 09:16:49;;;;;;;;;;;15.90;89.70;;;15.18;44.79;96109.09;10334885;28;2108;-85
2021/05/31 09:22:09;;;;;;;;;;;15.90;89.30;;;14.82;44.92;96110.44;10327196;28;2114;-87
2021/05/31 09:27:33;;;;;;;;;;;16.00;88.00;;;14.99;43.94;96112.63;10341298;28;1971;-88
2021/05/31 09:32:44;;;;;;;;;;;16.00;87.10;;;15.02;44.06;96117.47;10328921;28;2251;-86
2021/05/31 09:43:16;;;;;;;;;;;16.50;87.60;;;15.02;43.70;96117.47;10339197;28;2740;-84
2021/05/31 09:48:21;;;;;;;;;;;16.00;86.60;;;14.77;45.00;96107.00;10358234;28;1973;-86
2021/05/31 10:05:40;;;;;;;;;;;16.50;82.80;;;15.07;43.41;96111.97;10340015;28;1556;-86
2021/05/31 10:11:07;;;;;;;;;;;16.10;84.90;;;15.18;42.50;96111.81;10363859;28;2091;-85
2021/05/31 10:16:13;;;;;;;;;;;16.10;84.30;;;15.07;42.54;96103.03;10330678;28;1927;-84
2021/05/31 10:21:22;;;;;;;;;;;16.20;83.90;;;15.62;42.31;96090.53;10344187;28;1897;-87
2021/05/31 10:26:41;;;;;;;;;;;16.30;83.90;;;15.03;41.41;96092.00;10365498;28;2365;-87
2021/05/31 11:12:54;;;;;;;;;;;20.20;67.70;;;17.72;32.40;96090.41;10048795;29;1898;-87
2021/05/31 11:18:32;;;;;;;;;;;20.30;65.30;;;17.67;32.24;96067.94;10210151;28;2088;-88
2021/05/31 11:42:18;;;;;;;;;;;18.00;67.30;;;16.75;36.46;96068.25;10201443;29;2130;-83
2021/05/31 11:48:13;;;;;;;;;;;17.70;69.80;;;16.43;35.04;96068.38;10219582;29;1906;-86
2021/05/31 11:54:12;;;;;;;;;;;;;;;;;;;;;
2021/05/31 12:10:51;;;;;;;;;;;17.60;66.60;;;16.60;34.12;96056.88;10295493;28;2150;-81
2021/05/31 12:16:00;;;;;;;;;;;17.80;66.20;;;16.86;33.69;96049.84;10302840;28;2025;-85
2021/05/31 12:21:11;;;;;;;;;;;17.80;66.10;;;16.71;33.24;96056.38;10303208;28;1840;-85
2021/05/31 12:44:09;;;;;;;;;;;18.00;67.20;;;17.07;34.24;96033.84;10119641;29;2063;-84
2021/05/31 12:49:19;;;;;;;;;;;18.20;66.30;;;17.05;33.88;96033.38;10121581;29;1816;-85
2021/05/31 12:54:36;;;;;;;;;;;18.30;65.40;;;17.41;33.59;96036.00;10260789;28;1956;-85
2021/05/31 12:59:39;;;;;;;;;;;18.30;66.00;;;17.69;32.72;96028.50;10305358;28;2015;-80
2021/05/31 13:04:42;;;;;;;;;;;18.60;65.10;;;17.32;33.77;96028.91;10304190;28;2055;-82
2021/05/31 13:09:44;;;;;;;;;;;18.60;65.00;;;17.57;31.83;96025.53;10311793;28;2309;-84
2021/05/31 13:14:46;;;;;;;;;;;18.80;62.70;;;18.00;33.54;96022.22;10340679;28;2068;-82
2021/05/31 13:19:49;;;;;;;;;;;18.90;65.40;;;17.31;32.17;96030.03;10332189;28;2048;-84
2021/05/31 13:24:51;;;;;;;;;;;18.70;63.00;;;17.90;31.60;96017.09;10303035;28;2265;-82
2021/05/31 13:29:54;;;;;;;;;;;18.90;63.10;;;18.35;29.99;96013.06;10308300;28;2102;-82
2021/05/31 13:34:56;;;;;;;;;;;19.30;61.10;;;17.87;32.87;96023.13;10324782;28;2052;-83
2021/05/31 13:39:58;;;;;;;;;;;19.20;63.00;;;18.33;31.02;96014.50;10326967;28;1991;-84
2021/05/31 13:45:01;;;;;;;;;;;19.30;62.40;;;17.90;32.52;96006.19;10322626;28;2072;-82
2021/05/31 13:50:03;;;;;;;;;;;19.40;62.20;;;18.13;33.39;96015.84;10325890;28;1969;-83
2021/05/31 13:55:05;;;;;;;;;;;19.20;64.20;;;17.92;31.05;96009.41;10342042;28;2063;-83
2021/05/31 14:00:08;;;;;;;;;;;19.10;61.40;;;17.77;29.12;96005.19;10305767;28;2097;-88
2021/05/31 14:05:14;;;;;;;;;;;19.00;58.50;;;18.06;31.66;96005.44;10308665;28;1853;-85
2021/05/31 14:10:18;;;;;;;;;;;19.10;61.50;;;17.81;33.01;96009.69;10308679;28;2034;-86
2021/05/31 14:15:25;;;;;;;;;;;19.00;62.70;;;17.79;32.34;96001.03;10305821;28;1968;-84
2021/05/31 14:20:34;;;;;;;;;;;18.90;62.40;;;17.42;32.01;95996.03;10320098;28;1829;-87
2021/05/31 14:25:41;;;;;;;;;;;18.90;61.10;;;17.92;30.55;96003.97;10315411;28;1878;-85
2021/05/31 14:30:44;;;;;;;;;;;18.90;60.70;;;17.50;33.02;96000.72;10337040;28;2524;-87
2021/05/31 14:52:54;;;;;;;;;;;19.30;57.40;;;18.06;29.71;95991.84;10319171;28;2203;-83
2021/05/31 14:57:57;;;;;;;;;;;19.40;57.80;;;18.29;31.82;95975.41;10305288;28;2180;-83
2021/05/31 15:03:00;;;;;;;;;;;19.40;60.70;;;18.09;31.33;95982.25;10317394;28;1635;-84
2021/05/31 15:08:02;;;;;;;;;;;19.40;60.10;;;18.04;30.79;95974.25;10315743;28;1999;-85
2021/05/31 15:13:05;;;;;;;;;;;19.30;59.50;;;17.95;29.63;95976.16;10293639;28;1610;-85
2021/05/31 15:18:07;;;;;;;;;;;19.00;58.00;;;17.90;29.51;95974.38;10284731;28;1914;-85
2021/05/31 15:23:12;;;;;;;;;;;19.10;57.70;;;18.33;30.29;95965.50;10277482;28;2088;-84
2021/05/31 15:28:14;;;;;;;;;;;19.20;59.40;;;18.07;31.72;95963.53;10308284;28;1787;-83
2021/05/31 15:33:17;;;;;;;;;;;19.30;59.90;;;18.15;31.68;95967.41;10286753;28;1856;-83
2021/05/31 15:38:19;;;;;;;;;;;19.40;60.30;;;17.90;30.45;95957.25;10284514;28;1935;-84
2021/05/31 15:43:22;;;;;;;;;;;19.30;58.50;;;18.19;30.69;95953.94;10275437;28;1924;-84
2021/05/31 15:48:25;;;;;;;;;;;19.30;59.10;;;18.23;31.32;95952.19;10282300;28;1301;-81
2021/05/31 15:53:28;;;;;;;;;;;19.30;59.30;;;17.91;32.28;95958.84;10294425;28;2067;-84
2021/05/31 15:58:30;;;;;;;;;;;19.10;60.70;;;18.11;32.81;95952.81;10280231;28;2127;-85
2021/05/31 16:03:33;;;;;;;;;;;19.10;61.50;;;17.75;32.25;95955.75;10276728;28;1981;-89
2021/05/31 16:08:51;;;;;;;;;;;18.90;60.60;;;17.56;31.45;95958.72;10283322;28;1955;-89
2021/05/31 16:14:22;;;;;;;;;;;18.70;59.50;;;17.16;31.48;95960.56;10299050;28;2015;-85
2021/05/31 16:19:32;;;;;;;;;;;18.40;58.90;;;17.06;31.96;95961.63;10304520;28;1895;-84
2021/05/31 16:30:10;;;;;;;;;;;18.20;59.20;;;17.02;31.08;95955.22;10276704;28;2114;-87
2021/05/31 16:35:22;;;;;;;;;;;18.10;59.10;;;16.86;31.54;95946.66;10296953;28;2067;-85
2021/05/31 16:40:39;;;;;;;;;;;17.90;58.90;;;16.71;31.78;95945.09;10286840;28;1866;-83
2021/05/31 16:45:42;;;;;;;;;;;17.80;59.50;;;16.68;31.00;95945.69;10294615;28;1694;-86
2021/05/31 16:50:45;;;;;;;;;;;17.70;58.80;;;16.64;31.72;95952.03;10291820;28;1918;-85
2021/05/31 16:55:48;;;;;;;;;;;17.70;59.30;;;16.55;32.58;95938.41;10308347;28;1981;-86
2021/05/31 17:00:52;;;;;;;;;;;17.60;60.40;;;16.61;33.15;95942.63;10288257;28;1954;-81
2021/05/31 17:06:08;;;;;;;;;;;17.60;60.90;;;16.41;33.09;95940.34;10289666;28;2056;-84
2021/05/31 17:21:54;;;;;;;;;;;17.40;60.70;;;16.35;32.07;95938.84;10293074;28;1775;-85
2021/05/31 17:26:57;;;;;;;;;;;17.30;60.30;;;16.27;32.95;95926.03;10306645;28;1561;-85
2021/05/31 17:37:39;;;;;;;;;;;17.20;61.70;;;16.14;35.80;95933.91;10267568;28;1883;-87
2021/05/31 17:42:42;;;;;;;;;;;17.10;63.70;;;16.05;36.39;95937.66;10300009;28;1604;-85
2021/05/31 17:47:47;;;;;;;;;;;17.10;64.40;;;15.91;36.19;95937.66;10296545;28;2019;-84
2021/05/31 17:52:53;;;;;;;;;;;16.90;64.30;;;15.88;36.93;95946.41;10291789;28;2082;-85
2021/05/31 17:58:03;;;;;;;;;;;16.80;65.10;;;15.77;36.85;95953.13;10293410;28;1990;-85
2021/05/31 18:03:20;;;;;;;;;;;16.80;65.00;;;15.67;37.70;95954.94;10292039;28;2066;-85
2021/05/31 18:08:42;;;;;;;;;;;16.60;65.80;;;15.61;36.90;95950.69;10316383;28;1953;-86
2021/05/31 18:32:12;;;;;;;;;;;16.30;67.40;;;15.03;40.12;95961.25;10303518;28;2045;-86
2021/05/31 18:37:54;;;;;;;;;;;;;;;;;;;;;
2021/05/31 18:48:51;;;;;;;;;;;15.90;70.00;;;14.75;41.69;95966.56;2469791;22;3195;-80
2021/05/31 18:53:53;;;;;;;;;;;15.80;70.60;;;14.65;42.18;95965.94;10305548;28;2062;-80
2021/05/31 18:58:55;;;;;;;;;;;15.70;71.20;;;14.50;43.27;95966.97;10283531;28;1923;-79
2021/05/31 19:03:58;;;;;;;;;;;15.60;72.30;;;14.36;43.75;95964.16;10287324;28;2094;-79
2021/05/31 19:09:00;;;;;;;;;;;15.50;72.60;;;14.22;44.54;95971.41;10284760;28;2015;-80
2021/05/31 19:14:03;;;;;;;;;;;15.30;73.40;;;14.05;45.13;95975.38;10292940;28;2071;-79
2021/05/31 19:19:05;;;;;;;;;;;15.20;73.80;;;13.67;46.26;95984.50;10298540;28;2236;-82
2021/05/31 19:24:07;;;;;;;;;;;15.00;74.90;;;13.60;45.84;95981.34;10329477;28;2101;-79
2021/05/31 19:29:10;;;;;;;;;;;14.80;75.20;;;13.41;46.85;95984.00;10328324;28;1880;-88
2021/05/31 19:34:14;;;;;;;;;;;14.60;75.90;;;13.34;46.87;95984.31;10328749;28;2347;-86
2021/05/31 19:39:17;;;;;;;;;;;14.40;76.30;;;13.22;47.58;95992.00;10319233;28;1894;-83
2021/05/31 19:44:21;;;;;;;;;;;14.40;76.70;;;12.99;48.85;95996.25;10309658;28;2259;-82
2021/05/31 19:49:24;;;;;;;;;;;14.20;77.50;;;12.76;49.29;95986.19;10296341;28;2214;-85
2021/05/31 19:54:41;;;;;;;;;;;14.00;78.10;;;12.63;49.60;95993.81;10305399;28;1908;-83
2021/05/31 19:59:49;;;;;;;;;;;13.90;78.80;;;12.50;49.71;95993.66;10330149;28;1972;-85
2021/05/31 20:04:59;;;;;;;;;;;13.70;79.30;;;12.44;50.63;95992.88;10314733;28;1927;-87
2021/05/31 20:10:13;;;;;;;;;;;13.70;79.50;;;12.25;50.77;96000.00;10315005;28;1581;-85
2021/05/31 20:15:19;;;;;;;;;;;13.50;80.20;;;12.13;52.14;96000.34;10312403;28;1396;-85
2021/05/31 20:20:37;;;;;;;;;;;13.40;80.80;;;12.02;53.08;95998.78;10300162;28;2275;-82
2021/05/31 20:25:42;;;;;;;;;;;13.30;81.40;;;12.05;52.27;95999.03;10308656;28;1971;-84
2021/05/31 20:30:58;;;;;;;;;;;13.20;81.70;;;11.93;52.82;96000.44;10308273;28;1896;-86
2021/05/31 20:36:07;;;;;;;;;;;13.10;82.00;;;11.95;52.30;95998.25;10312530;28;1906;-85
2021/05/31 20:41:16;;;;;;;;;;;13.10;82.30;;;11.87;52.97;96002.34;10320542;28;1883;-86
2021/05/31 20:46:32;;;;;;;;;;;13.00;82.50;;;11.81;53.40;95998.88;10307616;28;1864;-84
2021/05/31 20:51:36;;;;;;;;;;;13.00;83.10;;;11.63;53.99;96002.13;10302709;28;1621;-83
2021/05/31 20:56:45;;;;;;;;;;;12.90;83.50;;;11.53;54.75;96007.56;10311346;28;1914;-81
2021/05/31 21:01:50;;;;;;;;;;;12.70;84.20;;;11.54;54.47;95998.41;10324961;28;1516;-82
2021/05/31 21:07:20;;;;;;;;;;;12.70;84.90;;;11.47;54.71;95998.69;10275659;28;1858;-84
2021/05/31 21:12:31;;;;;;;;;;;12.60;85.50;;;11.27;56.07;95987.97;10294722;28;1891;-82
2021/05/31 21:17:36;;;;;;;;;;;12.50;86.20;;;11.12;56.35;95991.47;10313343;28;1952;-83
2021/05/31 21:22:40;;;;;;;;;;;12.40;86.60;;;11.08;57.04;95993.91;10310143;28;2206;-86
2021/05/31 21:27:43;;;;;;;;;;;12.20;87.20;;;11.04;56.27;95989.34;10299012;28;1922;-84
2021/05/31 21:32:49;;;;;;;;;;;12.20;87.40;;;10.94;58.13;95989.34;10311427;28;1827;-84
2021/05/31 21:37:59;;;;;;;;;;;12.20;88.20;;;10.90;57.78;95982.91;10318418;28;1983;-85
2021/05/31 21:43:14;;;;;;;;;;;12.00;88.60;;;10.96;57.72;95990.72;10305242;28;1876;-82
2021/05/31 21:48:18;;;;;;;;;;;12.00;89.00;;;10.86;58.48;95982.63;10306989;28;2200;-83
2021/05/31 21:53:22;;;;;;;;;;;12.00;89.50;;;10.71;58.46;95980.75;10308719;28;1743;-86
2021/05/31 21:58:37;;;;;;;;;;;12.00;89.80;;;10.68;58.87;95988.53;10308362;28;1922;-82
2021/05/31 22:03:44;;;;;;;;;;;11.90;90.40;;;10.71;58.96;95991.50;10315514;28;1876;-81
2021/05/31 22:08:51;;;;;;;;;;;11.80;90.90;;;10.66;59.67;95996.09;10303106;28;2055;-84
2021/05/31 22:14:24;;;;;;;;;;;11.80;91.50;;;10.53;59.89;95986.66;10309397;28;2171;-85
2021/05/31 22:19:37;;;;;;;;;;;11.70;91.90;;;10.43;60.09;95987.47;10312688;28;1886;-84
2021/05/31 22:25:04;;;;;;;;;;;11.60;92.00;;;10.21;61.71;95982.28;10314692;28;1581;-86
2021/05/31 22:35:29;;;;;;;;;;;11.40;93.10;;;10.31;60.49;95983.41;10304966;28;1643;-84
2021/05/31 22:40:37;;;;;;;;;;;11.40;93.20;;;10.11;61.48;95982.25;10325497;28;1910;-85
2021/05/31 22:53:38;;;;;;;;;;;12.50;94.10;;;10.17;61.53;95981.19;10292366;28;1935;-84
2021/05/31 22:57:03;;;;;;;;;;;11.30;93.80;;;10.10;60.79;95972.59;10318647;28;1914;-84
2021/05/31 23:02:19;;;;;;;;;;;11.20;93.90;;;9.95;61.20;95973.38;10303507;28;1384;-85
2021/05/31 23:07:57;;;;;;;;;;;11.20;94.10;;;9.89;61.73;95968.25;10306535;28;2171;-84
2021/05/31 23:13:00;;;;;;;;;;;11.10;94.50;;;9.93;61.17;95958.59;10298270;28;1639;-85
2021/05/31 23:18:06;;;;;;;;;;;11.10;94.60;;;9.94;60.61;95957.53;10299419;28;1992;-84
2021/05/31 23:23:09;;;;;;;;;;;11.00;94.30;;;9.74;62.16;95969.03;10292705;28;2068;-83
2021/05/31 23:28:12;;;;;;;;;;;11.00;95.00;;;9.66;62.12;95956.88;10296257;28;1371;-84
2021/05/31 23:33:18;;;;;;;;;;;10.90;95.40;;;9.52;63.16;95954.97;10299864;28;1919;-85
2021/05/31 23:38:22;;;;;;;;;;;10.80;95.80;;;9.39;63.71;95959.72;10291282;28;1919;-83
2021/05/31 23:43:28;;;;;;;;;;;10.70;96.60;;;9.36;64.05;95959.47;10299682;28;1736;-84
2021/05/31 23:48:31;;;;;;;;;;;10.60;97.00;;;9.59;62.94;95948.28;10297495;28;2150;-87
2021/05/31 23:53:35;;;;;;;;;;;10.60;97.30;;;9.46;63.86;95938.03;10295163;28;1887;-83
2021/05/31 23:58:38;;;;;;;;;;;10.60;97.30;;;9.31;64.75;95946.03;10300739;28;1915;-85
